sensor_id;sensor_type;location;lat;lon;timestamp;P1;durP1;ratioP1;P2;durP2;ratioP2
51612;SDS011;37694;51.748;14.326;2022-09-30T00:01:22;6.20;;;5.30;;
51612;SDS011;37694;51.748;14.326;2022-09-30T00:03:50;11.43;;;5.35;;
51612;SDS011;37694;51.748;14.326;2022-09-30T00:06:16;9.23;;;4.95;;
51612;SDS011;37694;51.748;14.326;2022-09-30T00:08:43;6.47;;;4.85;;
51612;SDS011;37694;51.748;14.326;2022-09-30T00:11:13;7.72;;;5.15;;
51612;SDS011;37694;51.748;14.326;2022-09-30T00:13:42;5.90;;;4.88;;
51612;SDS011;37694;51.748;14.326;2022-09-30T00:16:08;6.75;;;4.68;;
51612;SDS011;37694;51.748;14.326;2022-09-30T00:18:36;7.70;;;5.13;;
51612;SDS011;37694;51.748;14.326;2022-09-30T00:21:02;6.45;;;4.95;;
51612;SDS011;37694;51.748;14.326;2022-09-30T00:23:28;7.28;;;4.72;;
51612;SDS011;37694;51.748;14.326;2022-09-30T00:26:00;7.93;;;4.65;;
51612;SDS011;37694;51.748;14.326;2022-09-30T00:28:28;6.13;;;4.85;;
51612;SDS011;37694;51.748;14.326;2022-09-30T00:30:58;6.50;;;5.00;;
51612;SDS011;37694;51.748;14.326;2022-09-30T00:33:24;6.28;;;5.05;;
51612;SDS011;37694;51.748;14.326;2022-09-30T00:35:50;7.10;;;4.50;;
51612;SDS011;37694;51.748;14.326;2022-09-30T00:38:16;5.40;;;4.75;;
51612;SDS011;37694;51.748;14.326;2022-09-30T00:40:41;6.95;;;5.25;;
51612;SDS011;37694;51.748;14.326;2022-09-30T00:43:15;6.40;;;5.10;;
51612;SDS011;37694;51.748;14.326;2022-09-30T00:45:47;6.70;;;5.43;;
51612;SDS011;37694;51.748;14.326;2022-09-30T00:48:18;5.13;;;4.10;;
51612;SDS011;37694;51.748;14.326;2022-09-30T00:50:49;8.07;;;4.43;;
51612;SDS011;37694;51.748;14.326;2022-09-30T00:53:24;5.68;;;4.80;;
51612;SDS011;37694;51.748;14.326;2022-09-30T00:56:01;8.77;;;4.72;;
51612;SDS011;37694;51.748;14.326;2022-09-30T00:58:41;5.32;;;4.82;;
51612;SDS011;37694;51.748;14.326;2022-09-30T01:01:15;7.55;;;5.55;;
51612;SDS011;37694;51.748;14.326;2022-09-30T01:03:53;9.07;;;4.53;;
51612;SDS011;37694;51.748;14.326;2022-09-30T01:06:21;7.93;;;4.43;;
51612;SDS011;37694;51.748;14.326;2022-09-30T01:08:48;7.07;;;4.28;;
51612;SDS011;37694;51.748;14.326;2022-09-30T01:11:14;5.15;;;4.63;;
51612;SDS011;37694;51.748;14.326;2022-09-30T01:13:40;6.07;;;4.53;;
51612;SDS011;37694;51.748;14.326;2022-09-30T01:19:07;5.55;;;5.05;;
51612;SDS011;37694;51.748;14.326;2022-09-30T01:27:20;5.07;;;4.40;;
51612;SDS011;37694;51.748;14.326;2022-09-30T01:38:26;5.47;;;4.75;;
51612;SDS011;37694;51.748;14.326;2022-09-30T01:43:28;5.35;;;4.50;;
51612;SDS011;37694;51.748;14.326;2022-09-30T01:51:33;5.85;;;4.45;;
51612;SDS011;37694;51.748;14.326;2022-09-30T01:56:45;6.78;;;4.18;;
51612;SDS011;37694;51.748;14.326;2022-09-30T01:59:24;5.57;;;4.53;;
51612;SDS011;37694;51.748;14.326;2022-09-30T02:02:12;6.40;;;4.70;;
51612;SDS011;37694;51.748;14.326;2022-09-30T02:04:45;5.30;;;4.25;;
51612;SDS011;37694;51.748;14.326;2022-09-30T02:07:17;5.88;;;4.15;;
51612;SDS011;37694;51.748;14.326;2022-09-30T02:10:04;5.38;;;3.92;;
51612;SDS011;37694;51.748;14.326;2022-09-30T02:12:49;4.43;;;4.00;;
51612;SDS011;37694;51.748;14.326;2022-09-30T02:15:21;4.70;;;4.25;;
51612;SDS011;37694;51.748;14.326;2022-09-30T02:17:54;5.38;;;3.88;;
51612;SDS011;37694;51.748;14.326;2022-09-30T02:20:25;4.50;;;3.95;;
51612;SDS011;37694;51.748;14.326;2022-09-30T02:22:55;4.82;;;4.00;;
51612;SDS011;37694;51.748;14.326;2022-09-30T02:25:41;6.78;;;4.22;;
51612;SDS011;37694;51.748;14.326;2022-09-30T02:28:14;7.85;;;4.22;;
51612;SDS011;37694;51.748;14.326;2022-09-30T02:30:46;4.85;;;4.15;;
51612;SDS011;37694;51.748;14.326;2022-09-30T02:33:19;4.20;;;3.80;;
51612;SDS011;37694;51.748;14.326;2022-09-30T02:35:56;5.18;;;3.60;;
51612;SDS011;37694;51.748;14.326;2022-09-30T02:38:45;4.30;;;3.90;;
51612;SDS011;37694;51.748;14.326;2022-09-30T02:41:16;5.70;;;4.05;;
51612;SDS011;37694;51.748;14.326;2022-09-30T02:43:47;6.13;;;4.38;;
51612;SDS011;37694;51.748;14.326;2022-09-30T02:48:47;8.73;;;4.50;;
51612;SDS011;37694;51.748;14.326;2022-09-30T02:53:54;4.57;;;3.97;;
51612;SDS011;37694;51.748;14.326;2022-09-30T02:59:12;5.38;;;4.10;;
51612;SDS011;37694;51.748;14.326;2022-09-30T03:01:38;4.82;;;4.07;;
51612;SDS011;37694;51.748;14.326;2022-09-30T03:04:07;3.80;;;3.50;;
51612;SDS011;37694;51.748;14.326;2022-09-30T03:06:35;5.18;;;4.20;;
51612;SDS011;37694;51.748;14.326;2022-09-30T03:09:01;5.88;;;4.07;;
51612;SDS011;37694;51.748;14.326;2022-09-30T03:11:27;3.97;;;3.58;;
51612;SDS011;37694;51.748;14.326;2022-09-30T03:31:36;4.28;;;3.88;;
51612;SDS011;37694;51.748;14.326;2022-09-30T03:34:43;4.50;;;3.72;;
51612;SDS011;37694;51.748;14.326;2022-09-30T03:40:14;7.93;;;4.72;;
51612;SDS011;37694;51.748;14.326;2022-09-30T03:42:44;3.92;;;3.55;;
51612;SDS011;37694;51.748;14.326;2022-09-30T03:45:28;4.47;;;4.03;;
51612;SDS011;37694;51.748;14.326;2022-09-30T03:48:00;4.07;;;3.67;;
51612;SDS011;37694;51.748;14.326;2022-09-30T03:50:29;4.38;;;3.85;;
51612;SDS011;37694;51.748;14.326;2022-09-30T03:52:57;3.65;;;3.30;;
51612;SDS011;37694;51.748;14.326;2022-09-30T03:55:23;3.72;;;3.35;;
51612;SDS011;37694;51.748;14.326;2022-09-30T03:57:50;5.63;;;3.60;;
51612;SDS011;37694;51.748;14.326;2022-09-30T04:00:18;3.88;;;3.40;;
51612;SDS011;37694;51.748;14.326;2022-09-30T04:02:44;3.25;;;2.95;;
51612;SDS011;37694;51.748;14.326;2022-09-30T04:05:10;3.40;;;3.10;;
51612;SDS011;37694;51.748;14.326;2022-09-30T04:07:36;3.90;;;3.28;;
51612;SDS011;37694;51.748;14.326;2022-09-30T04:10:02;4.90;;;4.00;;
51612;SDS011;37694;51.748;14.326;2022-09-30T04:12:28;5.45;;;3.50;;
51612;SDS011;37694;51.748;14.326;2022-09-30T04:14:54;3.95;;;3.55;;
51612;SDS011;37694;51.748;14.326;2022-09-30T04:17:19;3.40;;;3.13;;
51612;SDS011;37694;51.748;14.326;2022-09-30T04:19:45;3.63;;;3.15;;
51612;SDS011;37694;51.748;14.326;2022-09-30T04:22:11;4.13;;;3.72;;
51612;SDS011;37694;51.748;14.326;2022-09-30T04:24:37;3.75;;;3.35;;
51612;SDS011;37694;51.748;14.326;2022-09-30T04:27:03;3.97;;;3.28;;
51612;SDS011;37694;51.748;14.326;2022-09-30T04:29:29;3.42;;;3.13;;
51612;SDS011;37694;51.748;14.326;2022-09-30T04:31:55;4.15;;;3.75;;
51612;SDS011;37694;51.748;14.326;2022-09-30T04:34:21;3.88;;;3.47;;
51612;SDS011;37694;51.748;14.326;2022-09-30T04:36:46;6.18;;;3.55;;
51612;SDS011;37694;51.748;14.326;2022-09-30T04:39:12;4.63;;;3.63;;
51612;SDS011;37694;51.748;14.326;2022-09-30T04:41:37;3.65;;;3.35;;
51612;SDS011;37694;51.748;14.326;2022-09-30T04:44:04;3.97;;;3.33;;
51612;SDS011;37694;51.748;14.326;2022-09-30T04:46:31;3.88;;;3.47;;
51612;SDS011;37694;51.748;14.326;2022-09-30T04:49:00;3.47;;;3.17;;
51612;SDS011;37694;51.748;14.326;2022-09-30T04:51:29;7.10;;;3.28;;
51612;SDS011;37694;51.748;14.326;2022-09-30T04:53:55;4.10;;;3.40;;
51612;SDS011;37694;51.748;14.326;2022-09-30T04:56:20;3.10;;;2.80;;
51612;SDS011;37694;51.748;14.326;2022-09-30T04:58:48;3.53;;;3.08;;
51612;SDS011;37694;51.748;14.326;2022-09-30T05:01:14;3.35;;;3.05;;
51612;SDS011;37694;51.748;14.326;2022-09-30T05:03:41;3.47;;;3.17;;
51612;SDS011;37694;51.748;14.326;2022-09-30T05:06:11;4.43;;;3.60;;
51612;SDS011;37694;51.748;14.326;2022-09-30T05:08:38;3.72;;;3.38;;
51612;SDS011;37694;51.748;14.326;2022-09-30T05:11:05;3.78;;;3.28;;
51612;SDS011;37694;51.748;14.326;2022-09-30T05:13:34;3.35;;;3.05;;
51612;SDS011;37694;51.748;14.326;2022-09-30T05:16:02;3.83;;;2.83;;
51612;SDS011;37694;51.748;14.326;2022-09-30T05:18:29;2.75;;;2.55;;
51612;SDS011;37694;51.748;14.326;2022-09-30T05:20:55;3.75;;;3.40;;
51612;SDS011;37694;51.748;14.326;2022-09-30T05:23:22;4.13;;;3.08;;
51612;SDS011;37694;51.748;14.326;2022-09-30T05:25:49;3.10;;;2.85;;
51612;SDS011;37694;51.748;14.326;2022-09-30T05:28:15;3.88;;;3.38;;
51612;SDS011;37694;51.748;14.326;2022-09-30T05:30:41;3.95;;;3.00;;
51612;SDS011;37694;51.748;14.326;2022-09-30T05:33:08;6.03;;;3.42;;
51612;SDS011;37694;51.748;14.326;2022-09-30T05:35:34;4.35;;;3.40;;
51612;SDS011;37694;51.748;14.326;2022-09-30T05:38:00;6.78;;;3.03;;
51612;SDS011;37694;51.748;14.326;2022-09-30T05:40:28;5.35;;;3.28;;
51612;SDS011;37694;51.748;14.326;2022-09-30T05:42:57;4.32;;;3.30;;
51612;SDS011;37694;51.748;14.326;2022-09-30T05:45:24;3.88;;;3.35;;
51612;SDS011;37694;51.748;14.326;2022-09-30T05:47:53;4.95;;;2.83;;
51612;SDS011;37694;51.748;14.326;2022-09-30T05:50:19;5.07;;;3.50;;
51612;SDS011;37694;51.748;14.326;2022-09-30T05:52:47;4.65;;;2.92;;
51612;SDS011;37694;51.748;14.326;2022-09-30T05:55:14;7.93;;;3.33;;
51612;SDS011;37694;51.748;14.326;2022-09-30T05:57:40;6.30;;;3.45;;
51612;SDS011;37694;51.748;14.326;2022-09-30T06:00:07;7.45;;;3.30;;
51612;SDS011;37694;51.748;14.326;2022-09-30T06:02:33;6.43;;;3.13;;
51612;SDS011;37694;51.748;14.326;2022-09-30T06:05:02;5.97;;;3.60;;
51612;SDS011;37694;51.748;14.326;2022-09-30T06:07:29;6.20;;;3.63;;
51612;SDS011;37694;51.748;14.326;2022-09-30T06:09:54;6.20;;;3.28;;
51612;SDS011;37694;51.748;14.326;2022-09-30T06:12:20;6.03;;;3.35;;
51612;SDS011;37694;51.748;14.326;2022-09-30T06:14:45;3.67;;;3.38;;
51612;SDS011;37694;51.748;14.326;2022-09-30T06:17:11;8.35;;;3.25;;
51612;SDS011;37694;51.748;14.326;2022-09-30T06:19:36;4.97;;;3.20;;
51612;SDS011;37694;51.748;14.326;2022-09-30T06:22:02;4.00;;;3.55;;
51612;SDS011;37694;51.748;14.326;2022-09-30T06:24:27;8.45;;;3.60;;
51612;SDS011;37694;51.748;14.326;2022-09-30T06:26:53;9.35;;;3.70;;
51612;SDS011;37694;51.748;14.326;2022-09-30T06:29:19;5.38;;;3.35;;
51612;SDS011;37694;51.748;14.326;2022-09-30T06:31:44;4.10;;;3.47;;
51612;SDS011;37694;51.748;14.326;2022-09-30T06:34:10;6.30;;;3.53;;
51612;SDS011;37694;51.748;14.326;2022-09-30T06:36:35;11.38;;;3.55;;
51612;SDS011;37694;51.748;14.326;2022-09-30T06:39:02;7.95;;;3.35;;
51612;SDS011;37694;51.748;14.326;2022-09-30T06:41:28;10.13;;;4.20;;
51612;SDS011;37694;51.748;14.326;2022-09-30T06:43:54;5.72;;;3.72;;
51612;SDS011;37694;51.748;14.326;2022-09-30T06:46:21;5.53;;;3.85;;
51612;SDS011;37694;51.748;14.326;2022-09-30T06:48:48;6.45;;;4.53;;
51612;SDS011;37694;51.748;14.326;2022-09-30T06:51:18;12.25;;;4.05;;
51612;SDS011;37694;51.748;14.326;2022-09-30T06:53:44;5.30;;;4.00;;
51612;SDS011;37694;51.748;14.326;2022-09-30T06:56:10;5.50;;;3.53;;
51612;SDS011;37694;51.748;14.326;2022-09-30T06:58:36;7.68;;;4.10;;
51612;SDS011;37694;51.748;14.326;2022-09-30T07:01:05;6.15;;;4.00;;
51612;SDS011;37694;51.748;14.326;2022-09-30T07:03:31;3.70;;;3.22;;
51612;SDS011;37694;51.748;14.326;2022-09-30T07:05:59;8.93;;;3.88;;
51612;SDS011;37694;51.748;14.326;2022-09-30T07:08:28;8.38;;;3.80;;
51612;SDS011;37694;51.748;14.326;2022-09-30T07:10:56;11.30;;;3.72;;
51612;SDS011;37694;51.748;14.326;2022-09-30T07:13:23;8.75;;;5.07;;
51612;SDS011;37694;51.748;14.326;2022-09-30T07:15:48;5.32;;;3.83;;
51612;SDS011;37694;51.748;14.326;2022-09-30T07:18:18;11.38;;;4.22;;
51612;SDS011;37694;51.748;14.326;2022-09-30T07:20:48;11.20;;;3.63;;
51612;SDS011;37694;51.748;14.326;2022-09-30T07:23:18;5.65;;;4.00;;
51612;SDS011;37694;51.748;14.326;2022-09-30T07:25:51;9.38;;;3.65;;
51612;SDS011;37694;51.748;14.326;2022-09-30T07:28:19;11.95;;;3.72;;
51612;SDS011;37694;51.748;14.326;2022-09-30T07:30:45;11.07;;;3.42;;
51612;SDS011;37694;51.748;14.326;2022-09-30T07:33:11;9.52;;;3.97;;
51612;SDS011;37694;51.748;14.326;2022-09-30T07:35:42;11.15;;;3.72;;
51612;SDS011;37694;51.748;14.326;2022-09-30T07:38:15;10.00;;;3.72;;
51612;SDS011;37694;51.748;14.326;2022-09-30T07:40:41;6.28;;;3.50;;
51612;SDS011;37694;51.748;14.326;2022-09-30T07:43:14;9.35;;;4.00;;
51612;SDS011;37694;51.748;14.326;2022-09-30T07:45:43;11.48;;;4.00;;
51612;SDS011;37694;51.748;14.326;2022-09-30T07:48:08;10.88;;;3.95;;
51612;SDS011;37694;51.748;14.326;2022-09-30T07:50:54;11.60;;;4.13;;
51612;SDS011;37694;51.748;14.326;2022-09-30T07:53:20;15.43;;;3.90;;
51612;SDS011;37694;51.748;14.326;2022-09-30T07:55:46;5.97;;;4.05;;
51612;SDS011;37694;51.748;14.326;2022-09-30T07:58:11;10.43;;;3.83;;
51612;SDS011;37694;51.748;14.326;2022-09-30T08:00:37;5.82;;;3.40;;
51612;SDS011;37694;51.748;14.326;2022-09-30T08:03:03;5.05;;;3.75;;
51612;SDS011;37694;51.748;14.326;2022-09-30T08:05:28;4.13;;;3.65;;
51612;SDS011;37694;51.748;14.326;2022-09-30T08:07:54;10.38;;;3.60;;
51612;SDS011;37694;51.748;14.326;2022-09-30T08:10:20;13.55;;;4.00;;
51612;SDS011;37694;51.748;14.326;2022-09-30T08:12:45;10.25;;;4.07;;
51612;SDS011;37694;51.748;14.326;2022-09-30T08:15:11;8.82;;;4.30;;
51612;SDS011;37694;51.748;14.326;2022-09-30T08:17:36;6.05;;;3.65;;
51612;SDS011;37694;51.748;14.326;2022-09-30T08:20:02;6.20;;;4.00;;
51612;SDS011;37694;51.748;14.326;2022-09-30T08:22:28;6.88;;;3.45;;
51612;SDS011;37694;51.748;14.326;2022-09-30T08:24:53;8.98;;;3.25;;
51612;SDS011;37694;51.748;14.326;2022-09-30T08:27:19;19.30;;;4.78;;
51612;SDS011;37694;51.748;14.326;2022-09-30T08:29:45;10.18;;;4.05;;
51612;SDS011;37694;51.748;14.326;2022-09-30T08:32:10;9.75;;;4.20;;
51612;SDS011;37694;51.748;14.326;2022-09-30T08:34:36;4.10;;;3.33;;
51612;SDS011;37694;51.748;14.326;2022-09-30T08:37:03;8.82;;;3.50;;
51612;SDS011;37694;51.748;14.326;2022-09-30T08:39:29;5.32;;;3.17;;
51612;SDS011;37694;51.748;14.326;2022-09-30T08:42:04;6.43;;;3.75;;
51612;SDS011;37694;51.748;14.326;2022-09-30T08:52:48;9.05;;;4.15;;
51612;SDS011;37694;51.748;14.326;2022-09-30T08:57:49;12.98;;;4.07;;
51612;SDS011;37694;51.748;14.326;2022-09-30T09:00:17;5.85;;;3.45;;
51612;SDS011;37694;51.748;14.326;2022-09-30T09:02:47;5.88;;;3.85;;
51612;SDS011;37694;51.748;14.326;2022-09-30T09:05:19;7.88;;;4.13;;
51612;SDS011;37694;51.748;14.326;2022-09-30T09:08:13;17.20;;;4.25;;
51612;SDS011;37694;51.748;14.326;2022-09-30T09:11:11;36.83;;;5.22;;
51612;SDS011;37694;51.748;14.326;2022-09-30T09:19:15;16.17;;;4.57;;
51612;SDS011;37694;51.748;14.326;2022-09-30T09:24:23;13.73;;;4.35;;
51612;SDS011;37694;51.748;14.326;2022-09-30T09:26:52;10.15;;;4.28;;
51612;SDS011;37694;51.748;14.326;2022-09-30T09:29:21;15.05;;;4.38;;
51612;SDS011;37694;51.748;14.326;2022-09-30T09:32:13;17.45;;;3.53;;
51612;SDS011;37694;51.748;14.326;2022-09-30T09:34:44;12.98;;;3.67;;
51612;SDS011;37694;51.748;14.326;2022-09-30T09:37:19;12.38;;;3.35;;
51612;SDS011;37694;51.748;14.326;2022-09-30T09:40:28;8.00;;;4.15;;
51612;SDS011;37694;51.748;14.326;2022-09-30T09:45:50;10.60;;;4.18;;
51612;SDS011;37694;51.748;14.326;2022-09-30T09:48:22;9.07;;;3.92;;
51612;SDS011;37694;51.748;14.326;2022-09-30T09:50:50;9.50;;;3.88;;
51612;SDS011;37694;51.748;14.326;2022-09-30T09:54:10;8.43;;;3.92;;
51612;SDS011;37694;51.748;14.326;2022-09-30T09:56:20;9.10;;;3.83;;
51612;SDS011;37694;51.748;14.326;2022-09-30T09:59:03;9.25;;;3.78;;
51612;SDS011;37694;51.748;14.326;2022-09-30T10:01:30;7.93;;;3.40;;
51612;SDS011;37694;51.748;14.326;2022-09-30T10:04:11;8.95;;;3.63;;
51612;SDS011;37694;51.748;14.326;2022-09-30T10:06:43;9.73;;;3.80;;
51612;SDS011;37694;51.748;14.326;2022-09-30T10:09:20;13.32;;;3.80;;
51612;SDS011;37694;51.748;14.326;2022-09-30T10:11:48;11.07;;;4.18;;
51612;SDS011;37694;51.748;14.326;2022-09-30T10:14:17;14.98;;;6.32;;
51612;SDS011;37694;51.748;14.326;2022-09-30T10:16:45;83.28;;;15.32;;
51612;SDS011;37694;51.748;14.326;2022-09-30T10:19:19;59.70;;;12.98;;
51612;SDS011;37694;51.748;14.326;2022-09-30T10:21:48;34.40;;;8.38;;
51612;SDS011;37694;51.748;14.326;2022-09-30T10:24:28;36.75;;;7.10;;
51612;SDS011;37694;51.748;14.326;2022-09-30T10:26:55;14.20;;;5.28;;
51612;SDS011;37694;51.748;14.326;2022-09-30T10:29:23;17.58;;;5.05;;
51612;SDS011;37694;51.748;14.326;2022-09-30T10:31:53;11.97;;;5.27;;
51612;SDS011;37694;51.748;14.326;2022-09-30T10:34:27;15.00;;;4.63;;
51612;SDS011;37694;51.748;14.326;2022-09-30T10:36:57;10.85;;;4.25;;
51612;SDS011;37694;51.748;14.326;2022-09-30T10:39:29;7.97;;;4.93;;
51612;SDS011;37694;51.748;14.326;2022-09-30T10:44:51;9.35;;;4.38;;
51612;SDS011;37694;51.748;14.326;2022-09-30T10:47:22;11.98;;;4.40;;
51612;SDS011;37694;51.748;14.326;2022-09-30T10:50:00;12.85;;;4.38;;
51612;SDS011;37694;51.748;14.326;2022-09-30T10:52:49;8.77;;;3.80;;
51612;SDS011;37694;51.748;14.326;2022-09-30T10:55:42;9.10;;;3.65;;
51612;SDS011;37694;51.748;14.326;2022-09-30T10:58:27;5.95;;;3.22;;
51612;SDS011;37694;51.748;14.326;2022-09-30T11:01:05;12.45;;;4.13;;
51612;SDS011;37694;51.748;14.326;2022-09-30T11:03:55;8.02;;;3.38;;
51612;SDS011;37694;51.748;14.326;2022-09-30T11:06:32;7.60;;;3.85;;
51612;SDS011;37694;51.748;14.326;2022-09-30T11:09:08;9.63;;;3.38;;
51612;SDS011;37694;51.748;14.326;2022-09-30T11:11:40;7.80;;;3.85;;
51612;SDS011;37694;51.748;14.326;2022-09-30T11:17:32;5.20;;;3.08;;
51612;SDS011;37694;51.748;14.326;2022-09-30T11:22:41;6.32;;;3.08;;
51612;SDS011;37694;51.748;14.326;2022-09-30T11:25:16;7.32;;;2.40;;
51612;SDS011;37694;51.748;14.326;2022-09-30T11:30:17;9.18;;;2.83;;
51612;SDS011;37694;51.748;14.326;2022-09-30T11:32:57;11.07;;;3.22;;
51612;SDS011;37694;51.748;14.326;2022-09-30T11:41:08;6.63;;;2.75;;
51612;SDS011;37694;51.748;14.326;2022-09-30T11:46:33;3.35;;;2.67;;
51612;SDS011;37694;51.748;14.326;2022-09-30T11:49:36;12.27;;;2.97;;
51612;SDS011;37694;51.748;14.326;2022-09-30T11:55:20;7.03;;;2.78;;
51612;SDS011;37694;51.748;14.326;2022-09-30T11:58:10;7.05;;;2.72;;
51612;SDS011;37694;51.748;14.326;2022-09-30T12:00:38;8.75;;;2.53;;
51612;SDS011;37694;51.748;14.326;2022-09-30T12:05:56;7.78;;;2.58;;
51612;SDS011;37694;51.748;14.326;2022-09-30T12:08:29;8.35;;;2.72;;
51612;SDS011;37694;51.748;14.326;2022-09-30T12:11:06;9.80;;;2.50;;
51612;SDS011;37694;51.748;14.326;2022-09-30T12:13:39;13.32;;;3.00;;
51612;SDS011;37694;51.748;14.326;2022-09-30T12:18:40;5.43;;;2.20;;
51612;SDS011;37694;51.748;14.326;2022-09-30T12:21:27;11.63;;;2.67;;
51612;SDS011;37694;51.748;14.326;2022-09-30T12:23:59;9.10;;;2.85;;
51612;SDS011;37694;51.748;14.326;2022-09-30T12:26:27;9.98;;;2.40;;
51612;SDS011;37694;51.748;14.326;2022-09-30T12:29:07;13.73;;;2.50;;
51612;SDS011;37694;51.748;14.326;2022-09-30T12:34:40;13.20;;;2.50;;
51612;SDS011;37694;51.748;14.326;2022-09-30T12:48:43;4.28;;;1.48;;
51612;SDS011;37694;51.748;14.326;2022-09-30T12:51:29;2.65;;;1.20;;
51612;SDS011;37694;51.748;14.326;2022-09-30T12:54:05;3.05;;;1.30;;
51612;SDS011;37694;51.748;14.326;2022-09-30T12:56:44;7.82;;;1.48;;
51612;SDS011;37694;51.748;14.326;2022-09-30T12:59:12;4.68;;;1.73;;
51612;SDS011;37694;51.748;14.326;2022-09-30T13:01:39;1.30;;;1.20;;
51612;SDS011;37694;51.748;14.326;2022-09-30T13:14:11;3.25;;;1.15;;
51612;SDS011;37694;51.748;14.326;2022-09-30T13:29:58;1.38;;;1.17;;
51612;SDS011;37694;51.748;14.326;2022-09-30T13:32:35;1.55;;;0.70;;
51612;SDS011;37694;51.748;14.326;2022-09-30T13:35:02;3.55;;;1.25;;
51612;SDS011;37694;51.748;14.326;2022-09-30T13:40:39;1.42;;;0.75;;
51612;SDS011;37694;51.748;14.326;2022-09-30T13:43:20;2.90;;;1.00;;
51612;SDS011;37694;51.748;14.326;2022-09-30T13:46:28;0.82;;;0.82;;
51612;SDS011;37694;51.748;14.326;2022-09-30T13:49:28;1.65;;;0.77;;
51612;SDS011;37694;51.748;14.326;2022-09-30T13:52:20;0.70;;;0.70;;
51612;SDS011;37694;51.748;14.326;2022-09-30T13:54:55;0.60;;;0.60;;
51612;SDS011;37694;51.748;14.326;2022-09-30T13:57:35;0.60;;;0.60;;
51612;SDS011;37694;51.748;14.326;2022-09-30T14:00:11;2.70;;;0.65;;
51612;SDS011;37694;51.748;14.326;2022-09-30T14:03:05;0.75;;;0.63;;
51612;SDS011;37694;51.748;14.326;2022-09-30T14:08:47;1.10;;;0.70;;
51612;SDS011;37694;51.748;14.326;2022-09-30T14:11:35;0.77;;;0.77;;
51612;SDS011;37694;51.748;14.326;2022-09-30T14:19:51;0.63;;;0.52;;
51612;SDS011;37694;51.748;14.326;2022-09-30T14:22:31;0.50;;;0.47;;
51612;SDS011;37694;51.748;14.326;2022-09-30T14:25:00;0.50;;;0.50;;
51612;SDS011;37694;51.748;14.326;2022-09-30T14:32:47;0.50;;;0.50;;
51612;SDS011;37694;51.748;14.326;2022-09-30T14:35:21;0.52;;;0.52;;
51612;SDS011;37694;51.748;14.326;2022-09-30T14:37:51;0.68;;;0.60;;
51612;SDS011;37694;51.748;14.326;2022-09-30T14:40:29;0.40;;;0.40;;
51612;SDS011;37694;51.748;14.326;2022-09-30T14:42:57;0.85;;;0.57;;
51612;SDS011;37694;51.748;14.326;2022-09-30T14:45:27;0.50;;;0.50;;
51612;SDS011;37694;51.748;14.326;2022-09-30T14:47:59;0.73;;;0.60;;
51612;SDS011;37694;51.748;14.326;2022-09-30T14:50:34;0.63;;;0.38;;
51612;SDS011;37694;51.748;14.326;2022-09-30T14:53:01;1.45;;;0.52;;
51612;SDS011;37694;51.748;14.326;2022-09-30T14:55:31;0.57;;;0.57;;
51612;SDS011;37694;51.748;14.326;2022-09-30T15:01:32;5.80;;;1.45;;
51612;SDS011;37694;51.748;14.326;2022-09-30T15:03:39;6.57;;;1.08;;
51612;SDS011;37694;51.748;14.326;2022-09-30T15:06:15;6.60;;;1.00;;
51612;SDS011;37694;51.748;14.326;2022-09-30T15:12:14;12.85;;;1.20;;
51612;SDS011;37694;51.748;14.326;2022-09-30T15:14:53;8.18;;;1.15;;
51612;SDS011;37694;51.748;14.326;2022-09-30T15:17:27;3.63;;;1.40;;
51612;SDS011;37694;51.748;14.326;2022-09-30T15:19:55;6.53;;;1.30;;
51612;SDS011;37694;51.748;14.326;2022-09-30T15:22:22;12.82;;;0.90;;
51612;SDS011;37694;51.748;14.326;2022-09-30T15:24:50;1.30;;;0.93;;
51612;SDS011;37694;51.748;14.326;2022-09-30T15:27:21;4.30;;;1.75;;
51612;SDS011;37694;51.748;14.326;2022-09-30T15:29:53;3.05;;;1.10;;
51612;SDS011;37694;51.748;14.326;2022-09-30T15:32:23;1.77;;;0.95;;
51612;SDS011;37694;51.748;14.326;2022-09-30T15:34:54;7.03;;;1.25;;
51612;SDS011;37694;51.748;14.326;2022-09-30T15:37:23;6.38;;;1.17;;
51612;SDS011;37694;51.748;14.326;2022-09-30T15:39:57;5.15;;;1.30;;
51612;SDS011;37694;51.748;14.326;2022-09-30T15:42:55;4.57;;;1.25;;
51612;SDS011;37694;51.748;14.326;2022-09-30T15:45:28;4.63;;;0.90;;
51612;SDS011;37694;51.748;14.326;2022-09-30T15:50:50;6.47;;;1.92;;
51612;SDS011;37694;51.748;14.326;2022-09-30T15:55:48;4.95;;;1.15;;
51612;SDS011;37694;51.748;14.326;2022-09-30T16:01:20;7.28;;;1.02;;
51612;SDS011;37694;51.748;14.326;2022-09-30T16:08:51;7.93;;;1.10;;
51612;SDS011;37694;51.748;14.326;2022-09-30T16:11:29;10.20;;;1.20;;
51612;SDS011;37694;51.748;14.326;2022-09-30T16:13:58;5.28;;;1.30;;
51612;SDS011;37694;51.748;14.326;2022-09-30T16:16:27;8.35;;;1.13;;
51612;SDS011;37694;51.748;14.326;2022-09-30T16:18:55;4.07;;;1.33;;
51612;SDS011;37694;51.748;14.326;2022-09-30T16:21:26;5.80;;;1.30;;
51612;SDS011;37694;51.748;14.326;2022-09-30T16:29:16;1.85;;;1.15;;
51612;SDS011;37694;51.748;14.326;2022-09-30T16:31:42;5.38;;;1.33;;
51612;SDS011;37694;51.748;14.326;2022-09-30T16:34:27;3.55;;;1.30;;
51612;SDS011;37694;51.748;14.326;2022-09-30T16:37:02;6.63;;;1.10;;
51612;SDS011;37694;51.748;14.326;2022-09-30T16:39:34;2.40;;;1.00;;
51612;SDS011;37694;51.748;14.326;2022-09-30T16:42:00;8.20;;;1.20;;
51612;SDS011;37694;51.748;14.326;2022-09-30T16:44:28;2.92;;;1.10;;
51612;SDS011;37694;51.748;14.326;2022-09-30T16:46:58;6.32;;;1.60;;
51612;SDS011;37694;51.748;14.326;2022-09-30T16:49:24;5.25;;;1.45;;
51612;SDS011;37694;51.748;14.326;2022-09-30T16:51:50;2.80;;;1.00;;
51612;SDS011;37694;51.748;14.326;2022-09-30T16:54:15;16.17;;;1.38;;
51612;SDS011;37694;51.748;14.326;2022-09-30T16:56:41;5.80;;;1.38;;
51612;SDS011;37694;51.748;14.326;2022-09-30T16:59:11;12.55;;;1.50;;
51612;SDS011;37694;51.748;14.326;2022-09-30T17:01:39;6.85;;;2.15;;
51612;SDS011;37694;51.748;14.326;2022-09-30T17:04:05;4.97;;;1.20;;
51612;SDS011;37694;51.748;14.326;2022-09-30T17:06:31;10.70;;;2.08;;
51612;SDS011;37694;51.748;14.326;2022-09-30T17:08:58;5.65;;;1.38;;
51612;SDS011;37694;51.748;14.326;2022-09-30T17:11:27;8.15;;;1.38;;
51612;SDS011;37694;51.748;14.326;2022-09-30T17:13:55;13.63;;;1.95;;
51612;SDS011;37694;51.748;14.326;2022-09-30T17:16:21;4.93;;;1.52;;
51612;SDS011;37694;51.748;14.326;2022-09-30T17:18:47;7.18;;;1.50;;
51612;SDS011;37694;51.748;14.326;2022-09-30T17:21:17;12.02;;;1.52;;
51612;SDS011;37694;51.748;14.326;2022-09-30T17:23:43;5.82;;;1.60;;
51612;SDS011;37694;51.748;14.326;2022-09-30T17:26:09;16.40;;;2.40;;
51612;SDS011;37694;51.748;14.326;2022-09-30T17:28:35;9.38;;;1.83;;
51612;SDS011;37694;51.748;14.326;2022-09-30T17:31:00;7.75;;;1.75;;
51612;SDS011;37694;51.748;14.326;2022-09-30T17:33:30;5.45;;;1.40;;
51612;SDS011;37694;51.748;14.326;2022-09-30T17:36:01;7.80;;;1.95;;
51612;SDS011;37694;51.748;14.326;2022-09-30T17:38:30;12.88;;;2.60;;
51612;SDS011;37694;51.748;14.326;2022-09-30T17:40:56;11.88;;;1.95;;
51612;SDS011;37694;51.748;14.326;2022-09-30T17:43:41;8.35;;;2.13;;
51612;SDS011;37694;51.748;14.326;2022-09-30T17:46:07;12.93;;;1.67;;
51612;SDS011;37694;51.748;14.326;2022-09-30T17:48:33;3.25;;;1.40;;
51612;SDS011;37694;51.748;14.326;2022-09-30T17:50:59;15.60;;;2.75;;
51612;SDS011;37694;51.748;14.326;2022-09-30T17:53:24;15.65;;;2.00;;
51612;SDS011;37694;51.748;14.326;2022-09-30T17:56:00;14.13;;;2.58;;
51612;SDS011;37694;51.748;14.326;2022-09-30T17:58:27;32.67;;;2.67;;
51612;SDS011;37694;51.748;14.326;2022-09-30T18:00:53;9.43;;;1.77;;